Southampton, New Jersey
Current Conditions -  °F | °C
As of 3:54 PM on Thursday 27 Nov 2014 (Local Time) from KVAY Reporting Station
Overcast Overcast  
Wind Chill: 33°   Ceiling: 6000
Heat Index: 38°   Visibility: 10mi
Dew Point: 27°   Wind: 7mph
Humidity: 65%   Direction: 320°NW
Pressure: 30.03"   Gusts: NA
Location:  39.7955°N, 74.6301°W
Report Text: KVAY 272054Z AUTO 32006KT 10SM FEW027 OVC060 03/M03 A3003 RMK AO2 SLP168 T00331028 53007
Loading
Personal Weather Stations






























Interactive Weather Map New forecast layout! Learn more

10-Day Weather Forecast

Advertisements
Track Severe Weather on mobile